createdAt,value
2022-11-30T00:01:36.102Z,55.92
2022-11-30T00:04:11.766Z,59.15
2022-11-30T00:06:45.485Z,52.55
2022-11-30T00:09:16.005Z,54.13
2022-11-30T00:11:46.443Z,53.13
2022-11-30T00:14:16.410Z,53.65
2022-11-30T00:16:46.793Z,56.55
2022-11-30T00:19:19.393Z,52.38
2022-11-30T00:21:49.690Z,56.45
2022-11-30T00:24:20.138Z,55.00
2022-11-30T00:26:50.259Z,52.40
2022-11-30T00:29:20.322Z,54.13
2022-11-30T00:31:50.420Z,47.92
2022-11-30T00:34:23.628Z,49.88
2022-11-30T00:36:53.996Z,51.30
2022-11-30T00:39:24.261Z,49.70
2022-11-30T00:41:56.687Z,51.28
2022-11-30T00:44:26.860Z,57.47
2022-11-30T00:46:57.159Z,50.58
2022-11-30T00:49:29.896Z,54.17
2022-11-30T00:51:59.965Z,54.72
2022-11-30T00:54:30.625Z,52.25
2022-11-30T00:57:00.753Z,50.50
2022-11-30T00:59:30.913Z,56.03
2022-11-30T01:02:01.128Z,57.00
2022-11-30T01:04:33.998Z,56.97
2022-11-30T01:07:03.973Z,58.95
2022-11-30T01:09:34.155Z,76.65
2022-11-30T01:12:04.340Z,77.78
2022-11-30T01:14:34.509Z,69.20
2022-11-30T01:17:04.588Z,71.32
2022-11-30T01:19:37.342Z,78.93
2022-11-30T01:22:08.537Z,80.75
2022-11-30T01:24:39.206Z,88.05
2022-11-30T01:27:09.888Z,91.40
2022-11-30T01:29:40.267Z,84.32
2022-11-30T01:32:10.387Z,97.85
2022-11-30T01:34:43.391Z,108.15
2022-11-30T01:37:13.566Z,86.38
2022-11-30T01:39:44.105Z,105.57
2022-11-30T01:42:18.560Z,93.63
2022-11-30T01:44:55.413Z,86.40
2022-11-30T01:47:33.061Z,103.47
2022-11-30T01:50:11.018Z,80.05
2022-11-30T01:52:43.304Z,80.00
2022-11-30T01:55:21.790Z,90.10
2022-11-30T01:57:54.457Z,61.13
2022-11-30T02:00:24.876Z,62.25
2022-11-30T02:03:02.088Z,68.05
2022-11-30T02:05:36.055Z,70.78
2022-11-30T02:08:06.504Z,68.95
2022-11-30T02:10:39.967Z,87.35
2022-11-30T02:13:44.528Z,67.00
2022-11-30T02:16:27.138Z,74.50
2022-11-30T02:19:08.874Z,69.22
2022-11-30T02:21:49.114Z,72.28
2022-11-30T02:24:33.304Z,74.72
2022-11-30T02:27:26.378Z,60.80
2022-11-30T02:30:05.692Z,72.55
2022-11-30T02:32:42.099Z,65.18
2022-11-30T02:35:13.858Z,62.95
2022-11-30T02:37:44.867Z,60.60
2022-11-30T02:40:19.886Z,57.30
2022-11-30T02:42:50.722Z,73.68
2022-11-30T02:45:29.380Z,56.80
2022-11-30T02:48:07.645Z,57.63
2022-11-30T02:50:45.108Z,58.30
2022-11-30T02:53:15.295Z,49.85
2022-11-30T02:55:45.337Z,54.38
2022-11-30T02:58:16.457Z,55.28
2022-11-30T03:00:49.109Z,50.10
2022-11-30T03:03:19.203Z,50.28
2022-11-30T03:05:49.297Z,58.17
2022-11-30T03:08:19.706Z,55.78
2022-11-30T03:10:49.850Z,50.50
2022-11-30T03:13:19.957Z,62.38
2022-11-30T03:15:52.686Z,57.95
2022-11-30T03:18:22.935Z,55.63
2022-11-30T03:20:53.006Z,69.47
2022-11-30T03:23:23.232Z,55.53
2022-11-30T03:25:53.254Z,48.58
2022-11-30T03:28:23.733Z,53.92
2022-11-30T03:30:57.724Z,57.92
2022-11-30T03:33:28.296Z,40.55
2022-11-30T03:36:03.450Z,68.28
2022-11-30T03:38:34.850Z,49.40
2022-11-30T03:43:39.595Z,47.70
2022-11-30T03:46:12.522Z,51.72
2022-11-30T03:48:43.456Z,43.67
2022-11-30T03:51:15.011Z,64.07
2022-11-30T03:53:45.260Z,55.53
2022-11-30T03:56:16.984Z,65.45
2022-11-30T03:58:47.502Z,50.55
2022-11-30T04:01:22.589Z,53.58
2022-11-30T04:03:53.593Z,53.20
2022-11-30T04:06:24.773Z,63.63
2022-11-30T04:08:55.097Z,48.95
2022-11-30T04:11:25.247Z,52.13
2022-11-30T04:13:55.374Z,48.90
2022-11-30T04:16:28.170Z,40.15
2022-11-30T04:18:58.389Z,47.67
2022-11-30T04:21:28.604Z,49.10
2022-11-30T04:23:58.741Z,54.83
2022-11-30T04:26:28.765Z,49.80
2022-11-30T04:29:04.646Z,48.45
2022-11-30T04:31:37.757Z,51.28
2022-11-30T04:34:07.859Z,55.90
2022-11-30T04:36:37.957Z,52.47
2022-11-30T04:39:08.190Z,58.47
2022-11-30T04:41:38.302Z,54.50
2022-11-30T04:44:08.485Z,61.05
2022-11-30T04:46:41.243Z,67.40
2022-11-30T04:49:11.340Z,66.63
2022-11-30T04:51:44.647Z,53.67
2022-11-30T04:54:15.948Z,62.70
2022-11-30T04:59:16.025Z,66.85
2022-11-30T05:01:48.663Z,56.50
2022-11-30T05:04:18.982Z,62.05
2022-11-30T05:06:51.951Z,66.82
2022-11-30T05:09:22.443Z,60.05
2022-11-30T05:11:52.529Z,55.25
2022-11-30T05:14:22.906Z,64.88
2022-11-30T05:16:55.785Z,64.18
2022-11-30T05:19:26.181Z,61.53
2022-11-30T05:21:59.063Z,68.97
2022-11-30T05:24:29.318Z,70.82
2022-11-30T05:26:59.430Z,67.57
2022-11-30T05:29:29.780Z,69.55
2022-11-30T05:32:02.484Z,54.53
2022-11-30T05:34:45.680Z,58.42
2022-11-30T05:37:20.095Z,60.55
2022-11-30T05:39:50.302Z,62.63
2022-11-30T05:42:20.795Z,57.72
2022-11-30T05:44:51.248Z,65.50
2022-11-30T05:47:24.462Z,66.18
2022-11-30T05:49:54.625Z,59.67
2022-11-30T05:52:24.783Z,55.92
2022-11-30T05:54:55.079Z,61.40
2022-11-30T05:57:25.235Z,48.38
2022-11-30T05:59:55.548Z,55.75
2022-11-30T06:02:28.677Z,46.92
2022-11-30T06:04:58.833Z,54.05
2022-11-30T06:07:29.027Z,50.63
2022-11-30T06:09:59.284Z,48.03
2022-11-30T06:12:29.348Z,60.80
2022-11-30T06:14:59.540Z,48.05
2022-11-30T06:17:32.308Z,51.60
2022-11-30T06:20:05.595Z,50.30
2022-11-30T06:22:38.268Z,43.88
2022-11-30T06:25:09.343Z,45.95
2022-11-30T06:27:39.488Z,52.90
2022-11-30T06:30:11.441Z,51.67
2022-11-30T06:32:47.423Z,49.67
2022-11-30T06:35:17.905Z,55.92
2022-11-30T06:37:48.331Z,42.97
2022-11-30T06:40:21.958Z,56.90
2022-11-30T06:42:52.075Z,44.90
2022-11-30T06:45:22.768Z,46.72
2022-11-30T06:47:57.869Z,59.67
2022-11-30T06:50:51.259Z,44.85
2022-11-30T06:53:27.645Z,41.17
2022-11-30T06:55:58.258Z,38.10
2022-11-30T06:58:31.077Z,43.00
2022-11-30T07:01:01.366Z,54.58
2022-11-30T07:03:34.265Z,41.22
2022-11-30T07:06:04.505Z,40.22
2022-11-30T07:08:37.283Z,41.72
2022-11-30T07:11:07.909Z,39.80
2022-11-30T07:13:38.582Z,62.40
2022-11-30T07:16:10.998Z,37.75
2022-11-30T07:18:43.894Z,44.38
2022-11-30T07:21:14.674Z,35.03
2022-11-30T07:23:57.477Z,36.60
2022-11-30T07:26:27.999Z,40.00
2022-11-30T07:28:58.947Z,41.70
2022-11-30T07:31:31.288Z,37.60
2022-11-30T07:34:09.720Z,37.92
2022-11-30T07:36:40.235Z,37.40
2022-11-30T07:39:10.390Z,34.70
2022-11-30T07:41:40.652Z,36.33
2022-11-30T07:44:12.045Z,44.47
2022-11-30T07:46:42.442Z,38.00
2022-11-30T07:49:15.342Z,39.05
2022-11-30T07:51:45.869Z,33.88
2022-11-30T07:54:16.177Z,35.30
2022-11-30T07:56:46.214Z,34.53
2022-11-30T07:59:16.365Z,37.88
2022-11-30T08:01:46.605Z,35.65
2022-11-30T08:04:20.680Z,40.05
2022-11-30T08:06:50.784Z,32.65
2022-11-30T08:09:23.021Z,37.53
2022-11-30T08:11:53.244Z,34.72
2022-11-30T08:14:23.729Z,41.40
2022-11-30T08:16:54.013Z,36.33
2022-11-30T08:19:27.037Z,29.85
2022-11-30T08:21:57.318Z,27.05
2022-11-30T08:24:27.426Z,31.77
2022-11-30T08:26:57.803Z,30.67
2022-11-30T08:29:27.928Z,31.63
2022-11-30T08:31:58.340Z,41.08
2022-11-30T08:34:31.165Z,32.75
2022-11-30T08:37:01.368Z,32.67
2022-11-30T08:39:34.240Z,29.00
2022-11-30T08:42:10.694Z,29.75
2022-11-30T08:44:43.366Z,34.80
2022-11-30T08:47:13.831Z,36.95
2022-11-30T08:49:46.542Z,35.97
2022-11-30T08:52:18.174Z,38.00
2022-11-30T08:54:50.994Z,55.95
2022-11-30T08:57:24.769Z,41.78
2022-11-30T08:59:57.686Z,38.33
2022-11-30T09:02:28.023Z,43.05
2022-11-30T09:05:00.701Z,49.35
2022-11-30T09:07:30.945Z,48.58
2022-11-30T09:10:01.063Z,48.15
2022-11-30T09:12:31.286Z,51.42
2022-11-30T09:15:01.653Z,54.47
2022-11-30T09:17:35.738Z,60.05
2022-11-30T09:20:10.670Z,65.45
2022-11-30T09:25:24.812Z,58.60
2022-11-30T09:27:54.965Z,55.80
2022-11-30T09:30:25.574Z,50.63
2022-11-30T09:32:56.052Z,55.85
2022-11-30T09:35:28.755Z,54.67
2022-11-30T09:37:59.018Z,53.67
2022-11-30T09:40:35.511Z,54.58
2022-11-30T09:43:09.952Z,60.67
2022-11-30T09:45:42.686Z,59.13
2022-11-30T09:48:32.107Z,55.58
2022-11-30T09:51:16.397Z,56.33
2022-11-30T09:53:51.725Z,57.75
2022-11-30T09:56:27.220Z,55.05
2022-11-30T09:59:02.388Z,48.97
2022-11-30T10:01:37.475Z,56.80
2022-11-30T10:04:10.863Z,49.97
2022-11-30T10:06:51.608Z,43.50
2022-11-30T10:09:32.537Z,39.20
2022-11-30T10:12:07.595Z,39.00
2022-11-30T10:15:00.790Z,41.13
2022-11-30T10:17:42.551Z,42.58
2022-11-30T10:20:24.378Z,36.50
2022-11-30T10:23:18.436Z,40.65
2022-11-30T10:25:58.533Z,40.47
2022-11-30T10:28:48.354Z,34.40
2022-11-30T10:31:20.578Z,42.15
2022-11-30T10:33:52.722Z,37.92
2022-11-30T10:36:29.375Z,42.40
2022-11-30T10:39:04.081Z,38.88
2022-11-30T10:44:27.143Z,42.92
2022-11-30T10:47:02.163Z,40.28
2022-11-30T10:49:37.265Z,37.35
2022-11-30T10:52:12.156Z,41.67
2022-11-30T10:54:44.972Z,45.00
2022-11-30T10:57:17.094Z,40.60
2022-11-30T10:59:51.026Z,38.70
2022-11-30T11:02:43.024Z,36.70
2022-11-30T11:05:24.957Z,40.65
2022-11-30T11:08:04.466Z,36.45
2022-11-30T11:10:46.038Z,37.67
2022-11-30T11:13:23.497Z,37.70
2022-11-30T11:16:02.738Z,39.20
2022-11-30T11:18:34.601Z,40.72
2022-11-30T11:21:07.780Z,37.60
2022-11-30T11:23:40.630Z,34.58
2022-11-30T11:26:21.420Z,40.85
2022-11-30T11:28:53.879Z,42.33
2022-11-30T11:31:41.103Z,39.28
2022-11-30T11:34:27.428Z,37.13
2022-11-30T11:37:09.422Z,33.25
2022-11-30T11:39:40.180Z,33.92
2022-11-30T11:42:22.126Z,33.00
2022-11-30T11:44:54.968Z,32.75
2022-11-30T11:47:29.459Z,35.05
2022-11-30T11:50:57.662Z,32.70
2022-11-30T11:53:25.362Z,30.27
2022-11-30T11:56:00.393Z,31.95
2022-11-30T11:58:40.641Z,30.33
2022-11-30T12:01:39.430Z,31.23
2022-11-30T12:04:32.918Z,31.58
2022-11-30T12:07:07.757Z,35.50
2022-11-30T12:09:44.004Z,33.33
2022-11-30T12:12:16.384Z,33.30
2022-11-30T12:14:49.181Z,28.85
2022-11-30T12:17:44.186Z,31.00
2022-11-30T12:20:26.749Z,30.23
2022-11-30T12:23:16.876Z,33.67
2022-11-30T12:25:52.713Z,32.17
2022-11-30T12:28:29.789Z,32.42
2022-11-30T12:31:14.068Z,31.38
2022-11-30T12:36:28.133Z,36.17
2022-11-30T12:39:02.377Z,31.13
2022-11-30T12:41:42.850Z,31.63
2022-11-30T12:44:38.515Z,36.67
2022-11-30T12:47:27.495Z,30.30
2022-11-30T12:50:19.073Z,28.52
2022-11-30T12:52:57.477Z,30.77
2022-11-30T12:55:36.937Z,30.00
2022-11-30T12:58:19.067Z,29.80
2022-11-30T13:01:13.011Z,25.55
2022-11-30T13:03:56.808Z,35.92
2022-11-30T13:06:31.091Z,43.17
2022-11-30T13:09:06.280Z,65.45
2022-11-30T13:11:40.473Z,50.30
2022-11-30T13:14:17.855Z,65.15
2022-11-30T13:16:49.894Z,71.93
2022-11-30T13:19:44.471Z,68.68
2022-11-30T13:22:22.383Z,65.45
2022-11-30T13:25:00.768Z,76.95
2022-11-30T13:27:38.793Z,69.25
2022-11-30T13:30:29.578Z,35.80
2022-11-30T13:33:02.667Z,31.90
2022-11-30T13:35:58.186Z,29.67
2022-11-30T13:38:37.504Z,26.35
2022-11-30T13:41:10.572Z,25.40
2022-11-30T13:43:45.604Z,23.45
2022-11-30T13:46:21.992Z,29.00
2022-11-30T13:48:52.876Z,25.55
2022-11-30T13:52:22.184Z,23.27
2022-11-30T13:54:54.556Z,24.05
2022-11-30T13:57:59.863Z,22.60
2022-11-30T14:00:45.451Z,22.42
2022-11-30T14:03:29.612Z,20.23
2022-11-30T14:06:29.128Z,19.60
2022-11-30T14:09:01.866Z,24.02
2022-11-30T14:11:58.960Z,27.10
2022-11-30T14:14:48.655Z,23.63
2022-11-30T14:17:23.049Z,27.48
2022-11-30T14:19:55.800Z,25.98
2022-11-30T14:22:29.526Z,23.63
2022-11-30T14:25:03.059Z,24.23
2022-11-30T14:27:33.453Z,23.55
2022-11-30T14:30:06.505Z,29.52
2022-11-30T14:32:43.850Z,26.17
2022-11-30T14:35:17.455Z,20.73
2022-11-30T14:37:54.280Z,21.38
2022-11-30T14:40:29.883Z,28.17
2022-11-30T14:43:01.952Z,26.05
2022-11-30T14:45:34.095Z,26.52
2022-11-30T14:48:10.339Z,22.88
2022-11-30T14:50:45.515Z,22.38
2022-11-30T14:53:28.080Z,24.23
2022-11-30T14:56:07.528Z,35.20
2022-11-30T14:58:45.166Z,22.67
2022-11-30T15:01:21.614Z,23.73
2022-11-30T15:03:54.357Z,22.30
2022-11-30T15:06:35.874Z,24.73
2022-11-30T15:09:06.232Z,23.60
2022-11-30T15:11:44.202Z,22.58
2022-11-30T15:14:14.642Z,19.73
2022-11-30T15:16:50.997Z,22.20
2022-11-30T15:19:26.610Z,19.75
2022-11-30T15:21:58.104Z,26.30
2022-11-30T15:24:29.967Z,19.85
2022-11-30T15:27:10.612Z,20.63
2022-11-30T15:29:45.645Z,21.65
2022-11-30T15:32:20.677Z,19.73
2022-11-30T15:34:56.299Z,22.27
2022-11-30T15:37:33.530Z,20.15
2022-11-30T15:40:05.867Z,20.75
2022-11-30T15:42:43.780Z,21.42
2022-11-30T15:45:18.820Z,20.02
2022-11-30T15:47:48.992Z,20.35
2022-11-30T15:50:40.323Z,22.90
2022-11-30T15:53:29.893Z,22.33
2022-11-30T15:56:01.755Z,20.80
2022-11-30T15:58:39.836Z,23.30
2022-11-30T16:01:13.119Z,38.70
2022-11-30T16:04:02.893Z,53.20
2022-11-30T16:06:35.296Z,26.80
2022-11-30T16:09:09.240Z,24.20
2022-11-30T16:11:39.563Z,38.50
2022-11-30T16:14:17.342Z,31.55
2022-11-30T16:19:17.759Z,23.25
2022-11-30T16:21:48.013Z,39.53
2022-11-30T16:24:18.879Z,31.05
2022-11-30T16:26:51.304Z,22.92
2022-11-30T16:29:24.741Z,22.52
2022-11-30T16:31:54.828Z,23.80
2022-11-30T16:34:25.431Z,23.42
2022-11-30T16:36:55.871Z,24.48
2022-11-30T16:39:26.201Z,24.17
2022-11-30T16:41:56.172Z,24.45
2022-11-30T16:44:28.925Z,22.85
2022-11-30T16:46:59.016Z,22.90
2022-11-30T16:49:29.238Z,24.27
2022-11-30T16:51:59.277Z,26.85
2022-11-30T16:54:29.369Z,45.63
2022-11-30T16:56:59.358Z,27.27
2022-11-30T16:59:32.048Z,26.02
2022-11-30T17:02:02.151Z,47.85
2022-11-30T17:04:32.892Z,35.17
2022-11-30T17:07:03.272Z,39.67
2022-11-30T17:09:34.706Z,37.50
2022-11-30T17:12:05.049Z,31.00
2022-11-30T17:14:37.702Z,25.95
2022-11-30T17:17:07.812Z,26.75
2022-11-30T17:19:38.108Z,25.30
2022-11-30T17:22:08.295Z,27.92
2022-11-30T17:24:38.427Z,25.33
2022-11-30T17:27:08.460Z,25.40
2022-11-30T17:29:43.249Z,29.08
2022-11-30T17:32:13.317Z,37.55
2022-11-30T17:34:43.394Z,37.92
2022-11-30T17:37:13.949Z,37.00
2022-11-30T17:39:45.129Z,37.45
2022-11-30T17:42:15.083Z,40.78
2022-11-30T17:44:48.040Z,44.38
2022-11-30T17:47:18.380Z,34.17
2022-11-30T17:49:48.460Z,42.25
2022-11-30T17:52:18.820Z,38.58
2022-11-30T17:54:49.438Z,39.05
2022-11-30T17:57:19.814Z,38.17
2022-11-30T17:59:52.474Z,40.40
2022-11-30T18:02:23.000Z,37.05
2022-11-30T18:04:53.130Z,38.72
2022-11-30T18:07:23.377Z,29.63
2022-11-30T18:09:53.752Z,31.55
2022-11-30T18:12:24.089Z,30.08
2022-11-30T18:14:56.765Z,31.95
2022-11-30T18:17:27.075Z,38.40
2022-11-30T18:19:57.294Z,40.08
2022-11-30T18:22:28.635Z,39.20
2022-11-30T18:27:29.464Z,53.63
2022-11-30T18:30:06.085Z,56.92
2022-11-30T18:32:40.088Z,46.67
2022-11-30T18:35:11.381Z,42.78
2022-11-30T18:40:12.938Z,37.95
2022-11-30T18:42:43.128Z,36.05
2022-11-30T18:45:16.294Z,32.30
2022-11-30T18:47:46.500Z,31.65
2022-11-30T18:50:17.268Z,39.42
2022-11-30T18:52:47.491Z,35.10
2022-11-30T18:55:18.156Z,42.45
2022-11-30T18:57:48.751Z,34.22
2022-11-30T19:00:22.919Z,34.28
2022-11-30T19:02:56.335Z,33.08
2022-11-30T19:05:36.363Z,36.30
2022-11-30T19:08:08.532Z,25.95
2022-11-30T19:10:39.820Z,35.25
2022-11-30T19:13:10.431Z,33.22
2022-11-30T19:15:44.434Z,34.42
2022-11-30T19:18:17.236Z,34.05
2022-11-30T19:20:50.767Z,38.15
2022-11-30T19:23:20.851Z,35.75
2022-11-30T19:25:51.159Z,53.38
2022-11-30T19:28:21.964Z,36.83
2022-11-30T19:30:54.843Z,30.90
2022-11-30T19:33:25.717Z,41.90
2022-11-30T19:35:56.120Z,65.60
2022-11-30T19:38:26.547Z,36.67
2022-11-30T19:40:56.876Z,48.13
2022-11-30T19:43:27.352Z,35.22
2022-11-30T19:46:05.935Z,28.95
2022-11-30T19:48:36.663Z,27.20
2022-11-30T19:51:13.227Z,24.30
2022-11-30T19:53:46.305Z,24.63
2022-11-30T19:58:49.315Z,30.63
2022-11-30T20:01:24.879Z,30.23
2022-11-30T20:03:56.324Z,32.15
2022-11-30T20:06:29.060Z,30.20
2022-11-30T20:08:59.336Z,30.92
2022-11-30T20:11:29.912Z,33.53
2022-11-30T20:14:00.492Z,36.40
2022-11-30T20:16:33.379Z,31.17
2022-11-30T20:19:05.319Z,31.00
2022-11-30T20:21:37.923Z,30.92
2022-11-30T20:24:10.301Z,28.38
2022-11-30T20:26:42.712Z,32.08
2022-11-30T20:29:16.731Z,29.00
2022-11-30T20:31:51.836Z,26.92
2022-11-30T20:34:22.688Z,32.22
2022-11-30T20:36:53.950Z,25.42
2022-11-30T20:39:24.437Z,24.58
2022-11-30T20:41:55.271Z,21.15
2022-11-30T20:44:25.731Z,20.88
2022-11-30T20:46:58.542Z,20.90
2022-11-30T20:49:28.899Z,22.25
2022-11-30T20:51:59.587Z,20.60
2022-11-30T20:54:30.730Z,20.50
2022-11-30T20:57:01.514Z,19.48
2022-11-30T20:59:31.604Z,24.48
2022-11-30T21:02:04.422Z,21.88
2022-11-30T21:04:34.642Z,32.17
2022-11-30T21:07:04.997Z,22.65
2022-11-30T21:09:35.052Z,24.52
2022-11-30T21:12:05.136Z,32.20
2022-11-30T21:14:35.252Z,41.70
2022-11-30T21:17:07.959Z,29.05
2022-11-30T21:19:38.058Z,22.20
2022-11-30T21:22:08.208Z,40.95
2022-11-30T21:24:38.323Z,51.80
2022-11-30T21:27:08.453Z,57.33
2022-11-30T21:29:39.010Z,52.35
2022-11-30T21:32:11.775Z,41.22
2022-11-30T21:34:41.987Z,33.58
2022-11-30T21:37:11.993Z,36.72
2022-11-30T21:39:42.009Z,34.05
2022-11-30T21:42:12.128Z,37.33
2022-11-30T21:44:42.242Z,58.60
2022-11-30T21:47:14.905Z,25.98
2022-11-30T21:49:44.954Z,28.63
2022-11-30T21:52:15.279Z,52.55
2022-11-30T21:54:45.757Z,39.88
2022-11-30T21:57:16.021Z,27.17
2022-11-30T21:59:46.256Z,35.03
2022-11-30T22:02:19.170Z,41.55
2022-11-30T22:04:49.261Z,44.90
2022-11-30T22:07:31.804Z,37.92
2022-11-30T22:10:01.998Z,33.15
2022-11-30T22:12:32.059Z,32.70
2022-11-30T22:15:02.092Z,29.10
2022-11-30T22:17:34.805Z,31.75
2022-11-30T22:20:04.794Z,39.92
2022-11-30T22:22:34.794Z,29.67
2022-11-30T22:25:04.833Z,29.05
2022-11-30T22:27:34.868Z,41.33
2022-11-30T22:30:04.815Z,37.15
2022-11-30T22:32:43.265Z,34.63
2022-11-30T22:35:13.962Z,31.83
2022-11-30T22:37:44.192Z,33.75
2022-11-30T22:40:15.709Z,35.90
2022-11-30T22:42:45.776Z,30.55
2022-11-30T22:45:15.787Z,30.05
2022-11-30T22:47:48.651Z,32.45
2022-11-30T22:50:18.822Z,32.00
2022-11-30T22:53:03.256Z,33.22
2022-11-30T22:55:35.170Z,55.90
2022-11-30T22:58:05.297Z,37.70
2022-11-30T23:00:35.277Z,37.45
2022-11-30T23:03:08.025Z,30.75
2022-11-30T23:05:38.238Z,33.38
2022-11-30T23:08:08.965Z,33.35
2022-11-30T23:10:38.998Z,28.88
2022-11-30T23:13:09.113Z,30.13
2022-11-30T23:15:39.190Z,32.20
2022-11-30T23:18:12.032Z,30.42
2022-11-30T23:20:42.001Z,29.80
2022-11-30T23:23:12.111Z,29.55
2022-11-30T23:25:42.025Z,33.30
2022-11-30T23:28:12.156Z,27.95
2022-11-30T23:30:42.587Z,30.08
2022-11-30T23:33:15.215Z,30.13
2022-11-30T23:35:46.613Z,31.98
2022-11-30T23:38:16.903Z,29.05
2022-11-30T23:40:46.935Z,33.67
2022-11-30T23:43:17.064Z,30.17
2022-11-30T23:45:47.149Z,29.25
2022-11-30T23:48:19.839Z,25.08
2022-11-30T23:50:49.855Z,22.95
2022-11-30T23:53:21.950Z,22.77
2022-11-30T23:55:54.732Z,26.20
2022-11-30T23:58:26.160Z,27.80
